createdAt,value
2023-01-22T00:01:21.968Z,101180.56
2023-01-22T00:03:50.114Z,101182.82
2023-01-22T00:06:18.092Z,101183.14
2023-01-22T00:08:46.893Z,101183.39
2023-01-22T00:11:16.618Z,101186.00
2023-01-22T00:13:44.625Z,101185.88
2023-01-22T00:16:15.414Z,101184.45
2023-01-22T00:18:43.926Z,101181.70
2023-01-22T00:21:13.115Z,101185.83
2023-01-22T00:23:41.008Z,101190.25
2023-01-22T00:26:15.647Z,101187.95
2023-01-22T00:28:45.568Z,101190.83
2023-01-22T00:31:16.230Z,101188.77
2023-01-22T00:33:46.358Z,101193.94
2023-01-22T00:36:17.318Z,101199.89
2023-01-22T00:38:45.969Z,101203.32
2023-01-22T00:41:15.290Z,101206.04
2023-01-22T00:43:43.368Z,101206.83
2023-01-22T00:46:16.095Z,101211.09
2023-01-22T00:48:49.788Z,101211.77
2023-01-22T00:51:17.974Z,101216.94
2023-01-22T00:53:46.291Z,101214.73
2023-01-22T00:56:15.339Z,101215.60
2023-01-22T00:58:43.461Z,101217.63
2023-01-22T01:01:14.498Z,101217.62
2023-01-22T01:03:42.831Z,101219.16
2023-01-22T01:06:16.075Z,101220.34
2023-01-22T01:08:44.578Z,101223.25
2023-01-22T01:11:22.159Z,101223.41
2023-01-22T01:13:51.881Z,101221.31
2023-01-22T01:16:26.865Z,101216.40
2023-01-22T01:19:02.011Z,101221.59
2023-01-22T01:21:30.687Z,101225.77
2023-01-22T01:24:00.500Z,101228.86
2023-01-22T01:26:29.117Z,101231.13
2023-01-22T01:28:57.130Z,101230.34
2023-01-22T01:31:26.525Z,101232.86
2023-01-22T01:33:58.453Z,101231.55
2023-01-22T01:39:14.438Z,101240.69
2023-01-22T01:41:42.276Z,101243.75
2023-01-22T01:44:15.461Z,101244.08
2023-01-22T01:46:54.385Z,101245.42
2023-01-22T01:49:31.822Z,101244.42
2023-01-22T01:52:07.051Z,101242.71
2023-01-22T01:54:36.222Z,101247.83
2023-01-22T01:57:18.422Z,101248.84
2023-01-22T01:59:47.714Z,101249.08
2023-01-22T02:02:16.696Z,101246.53
2023-01-22T02:04:44.669Z,101247.46
2023-01-22T02:07:12.794Z,101246.32
2023-01-22T02:09:40.961Z,101247.45
2023-01-22T02:12:09.773Z,101246.11
2023-01-22T02:14:41.482Z,101248.95
2023-01-22T02:17:13.136Z,101249.70
2023-01-22T02:19:42.145Z,101251.18
2023-01-22T02:22:14.461Z,101253.20
2023-01-22T02:24:42.381Z,101249.66
2023-01-22T02:27:10.312Z,101249.73
2023-01-22T02:29:38.454Z,101247.23
2023-01-22T02:32:06.389Z,101246.74
2023-01-22T02:34:36.581Z,101248.44
2023-01-22T02:37:04.809Z,101252.21
2023-01-22T02:39:32.940Z,101254.10
2023-01-22T02:42:04.752Z,101260.23
2023-01-22T02:44:32.998Z,101260.55
2023-01-22T02:47:01.071Z,101265.70
2023-01-22T02:49:29.054Z,101266.52
2023-01-22T02:51:57.010Z,101267.81
2023-01-22T02:54:25.180Z,101275.67
2023-01-22T02:56:53.171Z,101277.17
2023-01-22T02:59:21.114Z,101278.52
2023-01-22T03:01:49.120Z,101280.85
2023-01-22T03:04:17.271Z,101284.52
2023-01-22T03:06:47.170Z,101287.10
2023-01-22T03:09:17.741Z,101287.63
2023-01-22T03:11:47.230Z,101286.67
2023-01-22T03:14:39.489Z,101285.25
2023-01-22T03:17:26.840Z,101287.89
2023-01-22T03:20:13.568Z,101287.36
2023-01-22T03:22:41.423Z,101289.21
2023-01-22T03:25:09.458Z,101286.15
2023-01-22T03:27:38.301Z,101293.48
2023-01-22T03:30:06.748Z,101296.41
2023-01-22T03:32:35.671Z,101301.69
2023-01-22T03:35:03.840Z,101304.70
2023-01-22T03:37:42.321Z,101308.59
2023-01-22T03:40:11.263Z,101307.72
2023-01-22T03:42:40.029Z,101307.47
2023-01-22T03:45:10.062Z,101307.83
2023-01-22T03:47:38.331Z,101311.56
2023-01-22T03:50:18.994Z,101315.29
2023-01-22T03:52:47.292Z,101312.77
2023-01-22T03:55:15.211Z,101314.03
2023-01-22T03:57:43.414Z,101318.77
2023-01-22T04:00:13.007Z,101323.20
2023-01-22T04:02:40.915Z,101322.91
2023-01-22T04:05:15.130Z,101327.52
2023-01-22T04:07:44.915Z,101329.71
2023-01-22T04:10:13.446Z,101333.98
2023-01-22T04:12:41.927Z,101332.95
2023-01-22T04:15:12.503Z,101334.44
2023-01-22T04:17:40.626Z,101332.59
2023-01-22T04:20:27.075Z,101335.20
2023-01-22T04:23:18.669Z,101341.64
2023-01-22T04:25:47.066Z,101342.30
2023-01-22T04:28:16.716Z,101342.66
2023-01-22T04:30:47.871Z,101342.79
2023-01-22T04:33:30.662Z,101347.98
2023-01-22T04:36:11.952Z,101355.55
2023-01-22T04:38:40.207Z,101357.96
2023-01-22T04:41:09.654Z,101354.49
2023-01-22T04:43:37.498Z,101354.23
2023-01-22T04:46:05.565Z,101358.63
2023-01-22T04:48:34.570Z,101358.91
2023-01-22T04:51:02.484Z,101361.81
2023-01-22T04:53:32.293Z,101367.73
2023-01-22T04:56:01.224Z,101365.52
2023-01-22T04:58:29.294Z,101363.06
2023-01-22T05:00:59.882Z,101365.31
2023-01-22T05:03:28.211Z,101366.44
2023-01-22T05:05:56.770Z,101370.07
2023-01-22T05:08:24.740Z,101368.00
2023-01-22T05:10:52.540Z,101371.36
2023-01-22T05:13:26.115Z,101371.13
2023-01-22T05:15:54.276Z,101376.60
2023-01-22T05:18:24.229Z,101378.14
2023-01-22T05:20:52.972Z,101378.67
2023-01-22T05:23:22.889Z,101382.08
2023-01-22T05:25:51.299Z,101384.24
2023-01-22T05:28:25.078Z,101387.63
2023-01-22T05:31:19.677Z,101388.44
2023-01-22T05:34:08.722Z,101390.25
2023-01-22T05:36:36.637Z,101396.88
2023-01-22T05:39:09.703Z,101399.41
2023-01-22T05:41:37.835Z,101404.13
2023-01-22T05:44:06.488Z,101403.09
2023-01-22T05:46:34.331Z,101409.48
2023-01-22T05:49:28.338Z,101408.13
2023-01-22T05:51:57.912Z,101405.92
2023-01-22T05:54:26.058Z,101412.77
2023-01-22T05:56:54.023Z,101412.41
2023-01-22T05:59:22.209Z,101411.26
2023-01-22T06:01:56.526Z,101413.93
2023-01-22T06:04:24.861Z,101416.58
2023-01-22T06:06:53.195Z,101419.05
2023-01-22T06:09:22.129Z,101419.73
2023-01-22T06:11:51.495Z,101416.71
2023-01-22T06:14:20.383Z,101420.17
2023-01-22T06:16:49.856Z,101420.33
2023-01-22T06:19:39.260Z,101421.08
2023-01-22T06:22:07.401Z,101421.60
2023-01-22T06:24:51.413Z,101428.38
2023-01-22T06:27:20.038Z,101432.16
2023-01-22T06:30:00.147Z,101435.46
2023-01-22T06:32:28.570Z,101442.26
2023-01-22T06:34:56.378Z,101443.48
2023-01-22T06:37:24.426Z,101446.83
2023-01-22T06:39:52.985Z,101446.75
2023-01-22T06:42:28.157Z,101447.98
2023-01-22T06:44:57.456Z,101455.66
2023-01-22T06:47:27.134Z,101456.95
2023-01-22T06:49:54.974Z,101461.08
2023-01-22T06:52:22.879Z,101467.45
2023-01-22T06:54:50.994Z,101469.30
2023-01-22T06:57:19.079Z,101468.80
2023-01-22T06:59:47.180Z,101467.75
2023-01-22T07:02:19.168Z,101470.02
2023-01-22T07:04:47.199Z,101473.77
2023-01-22T07:07:15.427Z,101471.93
2023-01-22T07:09:43.356Z,101477.08
2023-01-22T07:12:11.221Z,101479.00
2023-01-22T07:14:39.027Z,101484.55
2023-01-22T07:17:06.904Z,101487.46
2023-01-22T07:19:34.809Z,101488.52
2023-01-22T07:22:02.740Z,101489.87
2023-01-22T07:24:30.760Z,101495.88
2023-01-22T07:26:58.571Z,101507.23
2023-01-22T07:29:26.333Z,101505.17
2023-01-22T07:31:54.476Z,101504.73
2023-01-22T07:34:22.589Z,101507.84
2023-01-22T07:36:50.502Z,101509.95
2023-01-22T07:39:18.473Z,101507.63
2023-01-22T07:41:46.311Z,101510.52
2023-01-22T07:44:15.183Z,101509.98
2023-01-22T07:46:43.045Z,101516.06
2023-01-22T07:49:11.262Z,101517.23
2023-01-22T07:51:40.668Z,101522.85
2023-01-22T07:54:08.809Z,101519.98
2023-01-22T07:56:36.629Z,101518.70
2023-01-22T07:59:04.781Z,101522.88
2023-01-22T08:01:32.559Z,101521.81
2023-01-22T08:04:00.307Z,101528.68
2023-01-22T08:06:28.088Z,101533.61
2023-01-22T08:08:55.857Z,101537.18
2023-01-22T08:11:23.647Z,101542.00
2023-01-22T08:13:51.481Z,101543.80
2023-01-22T08:16:19.319Z,101543.30
2023-01-22T08:18:47.436Z,101546.48
2023-01-22T08:21:15.193Z,101547.45
2023-01-22T08:23:46.156Z,101553.17
2023-01-22T08:26:15.734Z,101554.68
2023-01-22T08:28:43.501Z,101557.58
2023-01-22T08:31:26.240Z,101560.33
2023-01-22T08:33:57.766Z,101564.97
2023-01-22T08:36:26.015Z,101571.13
2023-01-22T08:38:53.929Z,101575.20
2023-01-22T08:41:22.887Z,101573.95
2023-01-22T08:43:53.822Z,101578.53
2023-01-22T08:46:21.746Z,101579.39
2023-01-22T08:48:50.777Z,101577.71
2023-01-22T08:51:18.711Z,101580.92
2023-01-22T08:53:46.629Z,101579.59
2023-01-22T08:56:14.555Z,101585.48
2023-01-22T08:58:42.378Z,101589.13
2023-01-22T09:01:17.656Z,101590.86
2023-01-22T09:03:46.370Z,101594.90
2023-01-22T09:06:14.440Z,101594.77
2023-01-22T09:08:42.334Z,101595.85
2023-01-22T09:11:10.461Z,101600.32
2023-01-22T09:13:38.288Z,101602.94
2023-01-22T09:16:10.932Z,101603.64
2023-01-22T09:18:40.111Z,101600.88
2023-01-22T09:21:08.643Z,101601.31
2023-01-22T09:23:36.483Z,101603.33
2023-01-22T09:26:04.479Z,101603.23
2023-01-22T09:28:35.841Z,101605.02
2023-01-22T09:31:04.836Z,101601.52
2023-01-22T09:33:32.941Z,101601.02
2023-01-22T09:36:09.972Z,101600.00
2023-01-22T09:38:38.628Z,101604.45
2023-01-22T09:41:27.858Z,101602.94
2023-01-22T09:44:01.811Z,101605.23
2023-01-22T09:46:36.519Z,101605.05
2023-01-22T09:49:15.342Z,101605.61
2023-01-22T09:51:47.189Z,101606.06
2023-01-22T09:54:17.454Z,101608.52
2023-01-22T09:56:51.018Z,101609.34
2023-01-22T09:59:22.683Z,101608.05
2023-01-22T10:01:56.240Z,101608.54
2023-01-22T10:04:34.939Z,101611.15
2023-01-22T10:07:06.709Z,101615.83
2023-01-22T10:09:35.034Z,101615.11
2023-01-22T10:12:12.947Z,101614.45
2023-01-22T10:14:42.799Z,101611.56
2023-01-22T10:17:21.526Z,101608.01
2023-01-22T10:19:58.078Z,101605.23
2023-01-22T10:22:27.262Z,101601.69
2023-01-22T10:24:55.870Z,101598.70
2023-01-22T10:27:41.377Z,101599.33
2023-01-22T10:30:22.125Z,101601.00
2023-01-22T10:33:01.580Z,101595.08
2023-01-22T10:35:32.081Z,101601.11
2023-01-22T10:38:01.121Z,101600.08
2023-01-22T10:40:38.072Z,101600.09
2023-01-22T10:43:14.088Z,101593.73
2023-01-22T10:46:23.843Z,101597.09
2023-01-22T10:49:03.344Z,101595.77
2023-01-22T10:51:40.197Z,101597.90
2023-01-22T10:54:21.859Z,101597.13
2023-01-22T10:56:50.929Z,101592.00
2023-01-22T10:59:28.152Z,101596.19
2023-01-22T11:02:21.855Z,101595.31
2023-01-22T11:04:51.389Z,101595.73
2023-01-22T11:07:24.197Z,101595.33
2023-01-22T11:09:56.426Z,101593.95
2023-01-22T11:12:32.887Z,101590.72
2023-01-22T11:15:17.982Z,101585.58
2023-01-22T11:17:51.967Z,101584.95
2023-01-22T11:20:44.962Z,101579.92
2023-01-22T11:23:41.067Z,101580.34
2023-01-22T11:26:25.832Z,101579.77
2023-01-22T11:29:08.269Z,101580.01
2023-01-22T11:31:56.301Z,101580.02
2023-01-22T11:34:56.547Z,101580.67
2023-01-22T11:37:38.124Z,101580.10
2023-01-22T11:40:18.422Z,101583.63
2023-01-22T11:43:11.732Z,101582.50
2023-01-22T11:45:57.157Z,101578.28
2023-01-22T11:48:43.247Z,101579.03
2023-01-22T11:51:49.128Z,101575.89
2023-01-22T11:54:44.859Z,101575.42
2023-01-22T11:57:31.873Z,101571.80
2023-01-22T12:00:28.935Z,101572.73
2023-01-22T12:03:19.636Z,101568.97
2023-01-22T12:06:26.177Z,101570.78
2023-01-22T12:09:02.438Z,101573.52
2023-01-22T12:11:38.108Z,101580.42
2023-01-22T12:14:10.808Z,101580.39
2023-01-22T12:16:48.227Z,101582.75
2023-01-22T12:19:40.803Z,101585.52
2023-01-22T12:22:44.267Z,101583.06
2023-01-22T12:25:15.788Z,101586.13
2023-01-22T12:27:51.640Z,101587.14
2023-01-22T12:30:23.393Z,101587.26
2023-01-22T12:32:57.484Z,101590.34
2023-01-22T12:35:27.919Z,101590.70
2023-01-22T12:38:12.775Z,101594.09
2023-01-22T12:41:04.615Z,101592.51
2023-01-22T12:43:55.885Z,101594.46
2023-01-22T12:46:29.225Z,101605.70
2023-01-22T12:49:00.585Z,101601.10
2023-01-22T12:51:45.778Z,101601.70
2023-01-22T12:54:22.934Z,101597.34
2023-01-22T12:56:52.993Z,101597.68
2023-01-22T12:59:36.360Z,101595.48
2023-01-22T13:02:20.505Z,101595.83
2023-01-22T13:04:48.976Z,101594.64
2023-01-22T13:07:28.884Z,101590.80
2023-01-22T13:10:24.206Z,101580.90
2023-01-22T13:12:59.979Z,101578.59
2023-01-22T13:15:38.751Z,101578.28
2023-01-22T13:18:31.672Z,101577.64
2023-01-22T13:21:08.801Z,101580.73
2023-01-22T13:23:41.805Z,101584.09
2023-01-22T13:26:25.517Z,101595.00
2023-01-22T13:29:00.677Z,101600.23
2023-01-22T13:31:29.151Z,101599.64
2023-01-22T13:34:08.965Z,101602.70
2023-01-22T13:36:39.703Z,101608.99
2023-01-22T13:39:07.489Z,101617.63
2023-01-22T13:41:39.075Z,101618.41
2023-01-22T13:44:12.591Z,101620.73
2023-01-22T13:46:40.628Z,101620.89
2023-01-22T13:49:19.074Z,101625.74
2023-01-22T13:51:48.651Z,101628.27
2023-01-22T13:54:28.609Z,101629.98
2023-01-22T13:56:56.807Z,101631.62
2023-01-22T13:59:35.324Z,101635.00
2023-01-22T14:02:24.457Z,101636.04
2023-01-22T14:04:52.568Z,101642.48
2023-01-22T14:07:35.089Z,101641.03
2023-01-22T14:10:17.348Z,101644.71
2023-01-22T14:12:45.587Z,101648.99
2023-01-22T14:15:21.454Z,101651.86
2023-01-22T14:17:50.660Z,101657.81
2023-01-22T14:20:19.344Z,101667.98
2023-01-22T14:22:47.680Z,101673.11
2023-01-22T14:25:16.042Z,101674.77
2023-01-22T14:27:48.757Z,101675.05
2023-01-22T14:30:19.580Z,101673.48
2023-01-22T14:32:47.695Z,101676.56
2023-01-22T14:35:22.333Z,101674.10
2023-01-22T14:37:52.372Z,101671.48
2023-01-22T14:40:22.145Z,101675.27
2023-01-22T14:42:50.385Z,101673.86
2023-01-22T14:45:19.857Z,101677.82
2023-01-22T14:47:52.695Z,101677.13
2023-01-22T14:50:21.693Z,101678.31
2023-01-22T14:52:51.552Z,101679.57
2023-01-22T14:55:20.112Z,101683.88
2023-01-22T14:57:48.028Z,101686.58
2023-01-22T15:00:18.737Z,101687.35
2023-01-22T15:02:48.034Z,101691.23
2023-01-22T15:05:16.306Z,101693.92
2023-01-22T15:07:44.126Z,101695.84
2023-01-22T15:10:12.177Z,101695.35
2023-01-22T15:12:40.286Z,101693.80
2023-01-22T15:15:09.036Z,101695.55
2023-01-22T15:17:36.876Z,101694.73
2023-01-22T15:20:05.564Z,101694.14
2023-01-22T15:22:33.531Z,101698.25
2023-01-22T15:25:01.349Z,101701.15
2023-01-22T15:27:29.420Z,101708.02
2023-01-22T15:29:57.415Z,101712.63
2023-01-22T15:32:25.241Z,101714.66
2023-01-22T15:34:53.163Z,101720.31
2023-01-22T15:37:20.989Z,101717.73
2023-01-22T15:39:48.812Z,101714.52
2023-01-22T15:42:16.875Z,101720.95
2023-01-22T15:44:44.961Z,101720.05
2023-01-22T15:47:14.478Z,101723.02
2023-01-22T15:49:42.543Z,101722.02
2023-01-22T15:52:10.422Z,101724.77
2023-01-22T15:54:38.243Z,101723.11
2023-01-22T15:57:06.112Z,101727.77
2023-01-22T15:59:34.075Z,101729.94
2023-01-22T16:02:01.928Z,101732.51
2023-01-22T16:04:30.136Z,101733.80
2023-01-22T16:06:57.961Z,101735.30
2023-01-22T16:09:25.894Z,101738.60
2023-01-22T16:11:53.791Z,101741.45
2023-01-22T16:14:21.666Z,101743.08
2023-01-22T16:16:49.464Z,101745.11
2023-01-22T16:19:17.259Z,101750.98
2023-01-22T16:21:47.244Z,101751.88
2023-01-22T16:24:15.168Z,101754.23
2023-01-22T16:26:42.987Z,101755.05
2023-01-22T16:29:11.425Z,101756.56
2023-01-22T16:31:39.389Z,101764.23
2023-01-22T16:34:10.641Z,101759.60
2023-01-22T16:36:39.043Z,101755.84
2023-01-22T16:39:07.594Z,101759.05
2023-01-22T16:41:37.350Z,101759.21
2023-01-22T16:44:16.143Z,101764.30
2023-01-22T16:46:46.875Z,101762.68
2023-01-22T16:49:18.051Z,101766.20
2023-01-22T16:51:51.925Z,101767.64
2023-01-22T16:54:28.154Z,101765.41
2023-01-22T16:57:02.957Z,101769.73
2023-01-22T16:59:33.037Z,101772.33
2023-01-22T17:02:04.906Z,101773.38
2023-01-22T17:04:33.176Z,101776.83
2023-01-22T17:07:01.239Z,101776.52
2023-01-22T17:09:32.540Z,101778.56
2023-01-22T17:12:03.453Z,101779.55
2023-01-22T17:14:35.948Z,101781.44
2023-01-22T17:17:06.613Z,101788.94
2023-01-22T17:19:36.049Z,101789.92
2023-01-22T17:22:06.141Z,101791.92
2023-01-22T17:24:34.249Z,101796.55
2023-01-22T17:27:02.829Z,101803.88
2023-01-22T17:29:35.074Z,101804.67
2023-01-22T17:32:04.116Z,101809.97
2023-01-22T17:34:32.250Z,101811.95
2023-01-22T17:37:00.366Z,101814.52
2023-01-22T17:39:28.393Z,101815.24
2023-01-22T17:41:56.360Z,101815.21
2023-01-22T17:44:26.450Z,101814.07
2023-01-22T17:46:55.985Z,101813.67
2023-01-22T17:49:23.910Z,101819.27
2023-01-22T17:51:51.926Z,101823.71
2023-01-22T17:54:20.097Z,101820.58
2023-01-22T17:56:48.411Z,101822.64
2023-01-22T17:59:16.755Z,101816.35
2023-01-22T18:01:45.461Z,101816.59
2023-01-22T18:04:14.812Z,101819.70
2023-01-22T18:06:44.077Z,101824.65
2023-01-22T18:09:12.544Z,101825.31
2023-01-22T18:11:41.439Z,101825.84
2023-01-22T18:14:17.098Z,101825.19
2023-01-22T18:16:46.035Z,101825.56
2023-01-22T18:19:14.742Z,101826.39
2023-01-22T18:21:42.581Z,101823.25
2023-01-22T18:24:12.309Z,101823.83
2023-01-22T18:26:40.333Z,101823.09
2023-01-22T18:29:09.106Z,101824.61
2023-01-22T18:31:38.180Z,101825.14
2023-01-22T18:34:08.068Z,101825.56
2023-01-22T18:36:38.883Z,101824.51
2023-01-22T18:39:11.224Z,101826.74
2023-01-22T18:41:40.848Z,101821.83
2023-01-22T18:44:10.298Z,101826.59
2023-01-22T18:46:39.512Z,101822.95
2023-01-22T18:49:12.275Z,101822.02
2023-01-22T18:51:42.109Z,101824.59
2023-01-22T18:54:10.049Z,101823.59
2023-01-22T18:56:38.174Z,101826.81
2023-01-22T18:59:06.434Z,101834.19
2023-01-22T19:01:38.714Z,101842.36
2023-01-22T19:04:09.172Z,101840.95
2023-01-22T19:06:38.628Z,101844.98
2023-01-22T19:09:15.929Z,101843.89
2023-01-22T19:11:48.771Z,101848.27
2023-01-22T19:14:18.661Z,101847.99
2023-01-22T19:16:49.826Z,101852.52
2023-01-22T19:19:18.142Z,101854.06
2023-01-22T19:21:51.532Z,101853.09
2023-01-22T19:24:22.410Z,101858.34
2023-01-22T19:26:51.629Z,101859.66
2023-01-22T19:29:19.493Z,101857.73
2023-01-22T19:31:52.112Z,101861.07
2023-01-22T19:34:25.417Z,101861.42
2023-01-22T19:36:55.773Z,101860.57
2023-01-22T19:39:27.827Z,101866.04
2023-01-22T19:41:56.777Z,101866.98
2023-01-22T19:44:24.728Z,101867.54
2023-01-22T19:46:52.722Z,101869.09
2023-01-22T19:49:21.092Z,101868.04
2023-01-22T19:51:49.072Z,101868.83
2023-01-22T19:54:17.768Z,101871.63
2023-01-22T19:56:46.035Z,101867.32
2023-01-22T19:59:16.935Z,101873.70
2023-01-22T20:01:45.959Z,101868.83
2023-01-22T20:04:24.053Z,101872.51
2023-01-22T20:07:00.724Z,101872.38
2023-01-22T20:09:29.861Z,101874.48
2023-01-22T20:11:58.803Z,101871.59
2023-01-22T20:14:30.779Z,101869.22
2023-01-22T20:17:01.969Z,101864.45
2023-01-22T20:19:30.857Z,101867.70
2023-01-22T20:22:00.505Z,101872.40
2023-01-22T20:24:28.539Z,101879.01
2023-01-22T20:26:58.242Z,101880.48
2023-01-22T20:29:26.513Z,101887.54
2023-01-22T20:31:55.186Z,101892.63
2023-01-22T20:34:23.157Z,101892.15
2023-01-22T20:36:51.094Z,101896.30
2023-01-22T20:39:19.784Z,101895.82
2023-01-22T20:41:48.095Z,101895.83
2023-01-22T20:44:16.560Z,101897.33
2023-01-22T20:46:44.912Z,101897.61
2023-01-22T20:49:13.476Z,101904.04
2023-01-22T20:51:42.727Z,101911.63
2023-01-22T20:54:10.863Z,101914.65
2023-01-22T20:56:38.836Z,101914.43
2023-01-22T20:59:11.754Z,101911.95
2023-01-22T21:01:40.166Z,101910.20
2023-01-22T21:04:08.401Z,101910.36
2023-01-22T21:06:37.447Z,101915.75
2023-01-22T21:09:06.833Z,101915.29
2023-01-22T21:11:36.203Z,101915.80
2023-01-22T21:14:06.175Z,101918.66
2023-01-22T21:16:37.665Z,101917.83
2023-01-22T21:19:12.508Z,101914.79
2023-01-22T21:21:40.372Z,101919.06
2023-01-22T21:24:08.651Z,101917.91
2023-01-22T21:26:37.104Z,101920.85
2023-01-22T21:29:17.568Z,101922.38
2023-01-22T21:31:49.643Z,101917.52
2023-01-22T21:34:20.756Z,101911.59
2023-01-22T21:36:50.073Z,101911.54
2023-01-22T21:39:24.712Z,101916.65
2023-01-22T21:42:12.904Z,101915.77
2023-01-22T21:44:59.529Z,101918.55
2023-01-22T21:47:28.542Z,101917.90
2023-01-22T21:49:56.623Z,101917.01
2023-01-22T21:52:24.674Z,101915.67
2023-01-22T21:54:52.531Z,101914.89
2023-01-22T21:57:21.310Z,101921.17
2023-01-22T21:59:49.299Z,101926.58
2023-01-22T22:02:22.350Z,101926.23
2023-01-22T22:04:50.298Z,101927.73
2023-01-22T22:07:18.449Z,101924.91
2023-01-22T22:09:46.702Z,101924.52
2023-01-22T22:12:14.719Z,101928.79
2023-01-22T22:14:42.625Z,101935.27
2023-01-22T22:17:10.931Z,101937.66
2023-01-22T22:19:39.072Z,101940.08
2023-01-22T22:22:07.129Z,101944.52
2023-01-22T22:24:35.075Z,101946.38
2023-01-22T22:27:02.918Z,101947.40
2023-01-22T22:29:30.763Z,101952.98
2023-01-22T22:31:58.587Z,101951.52
2023-01-22T22:34:26.434Z,101952.19
2023-01-22T22:36:54.329Z,101951.83
2023-01-22T22:39:22.129Z,101950.20
2023-01-22T22:41:50.166Z,101952.40
2023-01-22T22:44:18.068Z,101954.82
2023-01-22T22:47:03.064Z,101956.13
2023-01-22T22:49:30.886Z,101961.34
2023-01-22T22:51:58.726Z,101966.30
2023-01-22T22:54:27.575Z,101974.59
2023-01-22T22:56:55.687Z,101977.75
2023-01-22T22:59:23.788Z,101979.78
2023-01-22T23:01:51.942Z,101978.95
2023-01-22T23:04:19.843Z,101977.98
2023-01-22T23:06:48.285Z,101982.23
2023-01-22T23:09:20.665Z,101980.04
2023-01-22T23:11:52.188Z,101973.96
2023-01-22T23:14:20.399Z,101972.33
2023-01-22T23:16:49.013Z,101976.64
2023-01-22T23:19:21.786Z,101980.20
2023-01-22T23:21:51.677Z,101977.94
2023-01-22T23:24:20.238Z,101978.97
2023-01-22T23:26:48.292Z,101979.02
2023-01-22T23:29:19.178Z,101985.66
2023-01-22T23:31:47.054Z,101987.95
2023-01-22T23:34:17.426Z,101992.20
2023-01-22T23:36:47.191Z,101989.59
2023-01-22T23:39:17.445Z,101985.70
2023-01-22T23:41:45.900Z,101982.61
2023-01-22T23:44:13.833Z,101981.23
2023-01-22T23:46:42.122Z,101983.45
2023-01-22T23:49:10.568Z,101984.98
2023-01-22T23:51:41.349Z,101990.82
2023-01-22T23:54:09.618Z,101999.28
2023-01-22T23:56:37.778Z,101999.55
2023-01-22T23:59:05.678Z,102002.45
